createdAt,value
2022-08-22T00:00:06.368Z,0.00
2022-08-22T00:01:06.507Z,0.00
2022-08-22T00:02:06.660Z,0.00
2022-08-22T00:02:45.362Z,0.00
2022-08-22T00:02:47.663Z,8.00
2022-08-22T00:02:58.484Z,0.00
2022-08-22T00:03:03.074Z,0.00
2022-08-22T00:03:09.767Z,0.00
2022-08-22T00:03:16.022Z,0.00
2022-08-22T00:03:16.332Z,0.00
2022-08-22T00:03:22.309Z,0.00
2022-08-22T00:04:07.947Z,0.00
2022-08-22T00:05:07.068Z,0.00
2022-08-22T00:06:07.209Z,0.00
2022-08-22T00:07:07.368Z,0.00
2022-08-22T00:08:07.516Z,0.00
2022-08-22T00:09:07.652Z,0.00
2022-08-22T00:10:07.797Z,0.00
2022-08-22T00:11:07.967Z,0.00
2022-08-22T00:12:08.096Z,0.00
2022-08-22T00:13:08.232Z,0.00
2022-08-22T00:14:08.377Z,0.00
2022-08-22T00:15:08.462Z,0.00
2022-08-22T00:16:09.652Z,0.00
2022-08-22T00:17:08.777Z,0.00
2022-08-22T00:18:08.905Z,0.00
2022-08-22T00:19:09.044Z,0.00
2022-08-22T00:20:09.204Z,0.00
2022-08-22T00:21:09.358Z,0.00
2022-08-22T00:22:09.498Z,0.00
2022-08-22T00:23:09.597Z,0.00
2022-08-22T00:24:09.738Z,0.00
2022-08-22T00:25:15.025Z,0.00
2022-08-22T00:26:11.087Z,0.00
2022-08-22T00:27:10.145Z,0.00
2022-08-22T00:28:10.285Z,0.00
2022-08-22T00:29:10.439Z,0.00
2022-08-22T00:30:10.567Z,0.00
2022-08-22T00:31:10.703Z,0.00
2022-08-22T00:32:10.838Z,0.00
2022-08-22T00:33:11.018Z,0.00
2022-08-22T00:34:11.149Z,0.00
2022-08-22T00:35:11.213Z,0.00
2022-08-22T00:36:11.348Z,0.00
2022-08-22T00:37:11.488Z,0.00
2022-08-22T00:38:11.630Z,0.00
2022-08-22T00:39:11.730Z,0.00
2022-08-22T00:40:11.908Z,0.00
2022-08-22T00:41:11.968Z,0.00
2022-08-22T00:42:12.132Z,0.00
2022-08-22T00:43:12.279Z,0.00
2022-08-22T00:44:12.414Z,0.00
2022-08-22T00:45:12.588Z,0.00
2022-08-22T00:46:13.496Z,0.00
2022-08-22T00:47:12.866Z,0.00
2022-08-22T00:48:14.549Z,0.00
2022-08-22T00:49:13.136Z,0.00
2022-08-22T00:50:13.276Z,0.00
2022-08-22T00:51:13.387Z,0.00
2022-08-22T00:52:13.488Z,0.00
2022-08-22T00:53:13.662Z,0.00
2022-08-22T00:54:18.341Z,0.00
2022-08-22T00:55:13.988Z,0.00
2022-08-22T00:56:14.116Z,0.00
2022-08-22T00:57:14.251Z,0.00
2022-08-22T00:58:14.377Z,0.00
2022-08-22T00:59:22.924Z,0.00
2022-08-22T01:00:15.648Z,0.00
2022-08-22T01:01:14.803Z,0.00
2022-08-22T01:02:14.957Z,0.00
2022-08-22T01:03:15.107Z,0.00
2022-08-22T01:04:15.213Z,0.00
2022-08-22T01:05:15.407Z,0.00
2022-08-22T01:06:15.502Z,0.00
2022-08-22T01:07:15.598Z,0.00
2022-08-22T01:08:15.738Z,0.00
2022-08-22T01:09:15.904Z,0.00
2022-08-22T01:10:16.046Z,0.00
2022-08-22T01:11:16.151Z,0.00
2022-08-22T01:12:16.298Z,0.00
2022-08-22T01:13:16.445Z,0.00
2022-08-22T01:14:16.608Z,0.00
2022-08-22T01:15:16.896Z,0.00
2022-08-22T01:16:16.875Z,0.00
2022-08-22T01:17:17.026Z,0.00
2022-08-22T01:18:17.154Z,0.00
2022-08-22T01:19:17.288Z,0.00
2022-08-22T01:20:17.441Z,0.00
2022-08-22T01:21:17.527Z,0.00
2022-08-22T01:22:17.658Z,0.00
2022-08-22T01:23:17.836Z,0.00
2022-08-22T01:24:17.947Z,0.00
2022-08-22T01:25:18.026Z,0.00
2022-08-22T01:26:19.372Z,0.00
2022-08-22T01:27:18.299Z,0.00
2022-08-22T01:28:18.436Z,0.00
2022-08-22T01:29:18.563Z,0.00
2022-08-22T01:30:19.735Z,0.00
2022-08-22T01:31:18.942Z,0.00
2022-08-22T01:32:19.017Z,0.00
2022-08-22T01:33:19.148Z,0.00
2022-08-22T01:34:19.299Z,0.00
2022-08-22T01:35:19.457Z,0.00
2022-08-22T01:36:19.618Z,0.00
2022-08-22T01:37:19.683Z,0.00
2022-08-22T01:38:19.816Z,0.00
2022-08-22T01:39:19.935Z,0.00
2022-08-22T01:40:20.150Z,0.00
2022-08-22T01:41:20.197Z,0.00
2022-08-22T01:42:20.357Z,0.00
2022-08-22T01:43:20.484Z,0.00
2022-08-22T01:44:20.637Z,0.00
2022-08-22T01:45:20.786Z,0.00
2022-08-22T01:46:21.526Z,0.00
2022-08-22T01:47:21.085Z,0.00
2022-08-22T01:48:21.257Z,0.00
2022-08-22T01:49:21.406Z,0.00
2022-08-22T01:50:21.546Z,0.00
2022-08-22T01:51:21.677Z,0.00
2022-08-22T01:52:21.819Z,0.00
2022-08-22T01:53:21.967Z,0.00
2022-08-22T01:54:22.116Z,0.00
2022-08-22T01:55:22.259Z,0.00
2022-08-22T01:56:22.422Z,0.00
2022-08-22T01:57:22.498Z,0.00
2022-08-22T01:58:22.651Z,0.00
2022-08-22T01:59:22.795Z,0.00
2022-08-22T02:00:35.528Z,0.00
2022-08-22T02:01:24.130Z,0.00
2022-08-22T02:02:23.217Z,0.00
2022-08-22T02:03:23.343Z,0.00
2022-08-22T02:04:23.476Z,0.00
2022-08-22T02:05:23.606Z,0.00
2022-08-22T02:06:23.781Z,0.00
2022-08-22T02:07:31.548Z,0.00
2022-08-22T02:08:24.984Z,0.00
2022-08-22T02:09:24.685Z,0.00
2022-08-22T02:10:24.198Z,0.00
2022-08-22T02:11:24.366Z,0.00
2022-08-22T02:12:24.497Z,0.00
2022-08-22T02:13:24.645Z,0.00
2022-08-22T02:14:24.748Z,0.00
2022-08-22T02:15:24.866Z,0.00
2022-08-22T02:16:25.026Z,0.00
2022-08-22T02:17:25.209Z,0.00
2022-08-22T02:18:25.335Z,0.00
2022-08-22T02:19:25.474Z,0.00
2022-08-22T02:20:25.626Z,0.00
2022-08-22T02:21:25.725Z,0.00
2022-08-22T02:22:25.853Z,0.00
2022-08-22T02:23:25.986Z,0.00
2022-08-22T02:24:26.115Z,0.00
2022-08-22T02:25:26.266Z,0.00
2022-08-22T02:26:26.433Z,0.00
2022-08-22T02:27:27.157Z,0.00
2022-08-22T02:28:27.715Z,0.00
2022-08-22T02:29:26.847Z,0.00
2022-08-22T02:30:26.966Z,0.00
2022-08-22T02:31:27.107Z,0.00
2022-08-22T02:32:27.288Z,0.00
2022-08-22T02:33:27.415Z,0.00
2022-08-22T02:34:27.555Z,0.00
2022-08-22T02:35:27.677Z,0.00
2022-08-22T02:36:27.836Z,0.00
2022-08-22T02:37:27.939Z,0.00
2022-08-22T02:38:28.047Z,0.00
2022-08-22T02:39:28.176Z,0.00
2022-08-22T02:40:28.336Z,0.00
2022-08-22T02:41:28.422Z,0.00
2022-08-22T02:42:28.593Z,0.00
2022-08-22T02:43:28.667Z,0.00
2022-08-22T02:44:28.803Z,0.00
2022-08-22T02:45:28.936Z,0.00
2022-08-22T02:46:29.076Z,0.00
2022-08-22T02:47:29.238Z,0.00
2022-08-22T02:48:29.376Z,0.00
2022-08-22T02:49:29.525Z,0.00
2022-08-22T02:50:29.709Z,0.00
2022-08-22T02:51:29.792Z,0.00
2022-08-22T02:52:29.924Z,0.00
2022-08-22T02:53:30.078Z,0.00
2022-08-22T02:54:30.227Z,0.00
2022-08-22T02:55:30.365Z,0.00
2022-08-22T02:56:30.513Z,0.00
2022-08-22T02:57:30.666Z,0.00
2022-08-22T02:58:31.778Z,0.00
2022-08-22T02:59:30.932Z,0.00
2022-08-22T03:00:33.196Z,0.00
2022-08-22T03:01:31.134Z,0.00
2022-08-22T03:02:31.320Z,0.00
2022-08-22T03:03:31.413Z,0.00
2022-08-22T03:04:31.548Z,0.00
2022-08-22T03:05:31.686Z,0.00
2022-08-22T03:06:31.846Z,0.00
2022-08-22T03:07:31.985Z,0.00
2022-08-22T03:08:32.139Z,0.00
2022-08-22T03:09:32.275Z,0.00
2022-08-22T03:10:32.443Z,0.00
2022-08-22T03:11:32.585Z,0.00
2022-08-22T03:12:32.742Z,0.00
2022-08-22T03:13:32.895Z,0.00
2022-08-22T03:14:32.995Z,0.00
2022-08-22T03:15:33.170Z,0.00
2022-08-22T03:16:33.324Z,0.00
2022-08-22T03:17:33.462Z,0.00
2022-08-22T03:18:33.592Z,0.00
2022-08-22T03:19:34.476Z,0.00
2022-08-22T03:20:33.864Z,0.00
2022-08-22T03:21:33.975Z,0.00
2022-08-22T03:22:34.105Z,0.00
2022-08-22T03:23:34.184Z,0.00
2022-08-22T03:24:34.316Z,0.00
2022-08-22T03:25:34.451Z,0.00
2022-08-22T03:26:34.575Z,0.00
2022-08-22T03:27:34.738Z,0.00
2022-08-22T03:28:34.869Z,0.00
2022-08-22T03:29:35.003Z,0.00
2022-08-22T03:30:35.175Z,0.00
2022-08-22T03:31:35.348Z,0.00
2022-08-22T03:32:35.449Z,0.00
2022-08-22T03:33:35.596Z,0.00
2022-08-22T03:34:35.684Z,0.00
2022-08-22T03:35:35.844Z,0.00
2022-08-22T03:36:35.989Z,0.00
2022-08-22T03:37:36.123Z,0.00
2022-08-22T03:38:36.291Z,0.00
2022-08-22T03:39:36.393Z,0.00
2022-08-22T03:40:36.525Z,0.00
2022-08-22T03:41:36.663Z,0.00
2022-08-22T03:42:36.784Z,0.00
2022-08-22T03:43:36.965Z,0.00
2022-08-22T03:44:37.025Z,0.00
2022-08-22T03:45:37.172Z,0.00
2022-08-22T03:46:37.253Z,0.00
2022-08-22T03:47:37.404Z,0.00
2022-08-22T03:48:37.492Z,0.00
2022-08-22T03:49:37.666Z,0.00
2022-08-22T03:50:37.826Z,0.00
2022-08-22T03:51:38.004Z,0.00
2022-08-22T03:52:38.072Z,0.00
2022-08-22T03:53:38.226Z,0.00
2022-08-22T03:54:38.376Z,0.00
2022-08-22T03:55:38.543Z,0.00
2022-08-22T03:56:38.607Z,4.00
2022-08-22T03:57:38.755Z,4.00
2022-08-22T03:58:38.855Z,0.00
2022-08-22T03:59:42.460Z,4.00
2022-08-22T04:00:39.267Z,4.00
2022-08-22T04:01:39.294Z,8.00
2022-08-22T04:02:42.835Z,4.00
2022-08-22T04:03:39.595Z,8.00
2022-08-22T04:04:39.682Z,8.00
2022-08-22T04:05:39.803Z,8.00
2022-08-22T04:06:39.903Z,12.00
2022-08-22T04:07:40.055Z,16.00
2022-08-22T04:08:43.778Z,12.00
2022-08-22T04:09:40.345Z,16.00
2022-08-22T04:10:40.523Z,20.00
2022-08-22T04:11:40.682Z,28.00
2022-08-22T04:12:40.954Z,28.00
2022-08-22T04:13:40.855Z,32.00
2022-08-22T04:14:41.004Z,36.00
2022-08-22T04:15:41.163Z,44.00
2022-08-22T04:16:41.242Z,52.00
2022-08-22T04:17:41.384Z,60.00
2022-08-22T04:18:41.484Z,68.00
2022-08-22T04:19:41.656Z,80.00
2022-08-22T04:20:41.725Z,88.00
2022-08-22T04:21:41.855Z,100.00
2022-08-22T04:22:42.004Z,116.00
2022-08-22T04:23:42.105Z,132.00
2022-08-22T04:24:42.265Z,148.00
2022-08-22T04:25:42.371Z,168.00
2022-08-22T04:26:42.532Z,188.00
2022-08-22T04:27:42.673Z,204.00
2022-08-22T04:28:42.818Z,224.00
2022-08-22T04:29:42.984Z,248.00
2022-08-22T04:30:43.104Z,268.00
2022-08-22T04:31:43.214Z,292.00
2022-08-22T04:32:43.314Z,316.00
2022-08-22T04:33:43.452Z,340.00
2022-08-22T04:34:43.597Z,364.00
2022-08-22T04:35:43.714Z,388.00
2022-08-22T04:36:43.826Z,416.00
2022-08-22T04:37:43.933Z,444.00
2022-08-22T04:38:44.117Z,472.00
2022-08-22T04:39:44.255Z,500.00
2022-08-22T04:40:44.302Z,536.00
2022-08-22T04:41:44.461Z,572.00
2022-08-22T04:42:44.593Z,604.00
2022-08-22T04:43:44.735Z,640.00
2022-08-22T04:44:44.882Z,676.00
2022-08-22T04:45:44.990Z,708.00
2022-08-22T04:46:45.145Z,736.00
2022-08-22T04:47:46.044Z,768.00
2022-08-22T04:48:46.345Z,800.00
2022-08-22T04:49:45.481Z,828.00
2022-08-22T04:50:45.590Z,852.00
2022-08-22T04:51:45.735Z,876.00
2022-08-22T04:52:45.856Z,912.00
2022-08-22T04:53:45.954Z,956.00
2022-08-22T04:54:46.104Z,1012.00
2022-08-22T04:55:46.274Z,1072.00
2022-08-22T04:56:46.351Z,1120.00
2022-08-22T04:57:46.532Z,1164.00
2022-08-22T04:58:46.606Z,1200.00
2022-08-22T04:59:46.756Z,1240.00
2022-08-22T05:00:47.033Z,1292.00
2022-08-22T05:01:47.200Z,1352.00
2022-08-22T05:02:49.150Z,1412.00
2022-08-22T05:03:47.292Z,1472.00
2022-08-22T05:04:47.425Z,1532.00
2022-08-22T05:05:47.571Z,1588.00
2022-08-22T05:06:47.674Z,1640.00
2022-08-22T05:07:47.821Z,1696.00
2022-08-22T05:08:48.412Z,1752.00
2022-08-22T05:09:49.039Z,1812.00
2022-08-22T05:10:48.191Z,1864.00
2022-08-22T05:11:48.312Z,1912.00
2022-08-22T05:12:48.421Z,1956.00
2022-08-22T05:13:48.565Z,1996.00
2022-08-22T05:14:48.693Z,2028.00
2022-08-22T05:15:48.833Z,2068.00
2022-08-22T05:16:49.022Z,2116.00
2022-08-22T05:17:49.101Z,2156.00
2022-08-22T05:18:49.253Z,2184.00
2022-08-22T05:19:49.395Z,2216.00
2022-08-22T05:20:49.483Z,2248.00
2022-08-22T05:21:49.620Z,2284.00
2022-08-22T05:22:49.720Z,2340.00
2022-08-22T05:23:49.864Z,2392.00
2022-08-22T05:24:49.992Z,2444.00
2022-08-22T05:25:50.142Z,2496.00
2022-08-22T05:26:50.275Z,2548.00
2022-08-22T05:27:53.259Z,2596.00
2022-08-22T05:28:53.434Z,2640.00
2022-08-22T05:29:50.615Z,2688.00
2022-08-22T05:30:50.714Z,2752.00
2022-08-22T05:31:50.852Z,2824.00
2022-08-22T05:32:51.013Z,2872.00
2022-08-22T05:33:51.123Z,2932.00
2022-08-22T05:34:51.358Z,2992.00
2022-08-22T05:35:55.829Z,3040.00
2022-08-22T05:36:52.454Z,3072.00
2022-08-22T05:37:51.603Z,3100.00
2022-08-22T05:38:51.711Z,3128.00
2022-08-22T05:39:51.875Z,3152.00
2022-08-22T05:40:51.950Z,3176.00
2022-08-22T05:41:52.092Z,3216.00
2022-08-22T05:42:52.232Z,3256.00
2022-08-22T05:43:52.335Z,3280.00
2022-08-22T05:44:52.435Z,3292.00
2022-08-22T05:45:53.292Z,3300.00
2022-08-22T05:46:53.424Z,3292.00
2022-08-22T05:47:53.077Z,3300.00
2022-08-22T05:48:53.163Z,3332.00
2022-08-22T05:49:53.240Z,3344.00
2022-08-22T05:50:53.233Z,3412.00
2022-08-22T05:51:53.479Z,3468.00
2022-08-22T05:52:53.483Z,3592.00
2022-08-22T05:53:53.600Z,3676.00
2022-08-22T05:54:54.413Z,3760.00
2022-08-22T05:55:54.541Z,3812.00
2022-08-22T05:56:53.934Z,3872.00
2022-08-22T05:57:54.092Z,3916.00
2022-08-22T05:58:54.882Z,3956.00
2022-08-22T05:59:54.946Z,4004.00
2022-08-22T06:00:54.446Z,4060.00
2022-08-22T06:01:54.616Z,4116.00
2022-08-22T06:02:54.732Z,4160.00
2022-08-22T06:03:54.823Z,4176.00
2022-08-22T06:04:55.048Z,4176.00
2022-08-22T06:05:55.049Z,4180.00
2022-08-22T06:06:55.181Z,4180.00
2022-08-22T06:07:55.331Z,4176.00
2022-08-22T06:08:56.126Z,4200.00
2022-08-22T06:09:55.601Z,4208.00
2022-08-22T06:10:55.638Z,4208.00
2022-08-22T06:11:55.826Z,4188.00
2022-08-22T06:12:55.954Z,4176.00
2022-08-22T06:13:56.101Z,4160.00
2022-08-22T06:14:56.214Z,4156.00
2022-08-22T06:15:56.311Z,4132.00
2022-08-22T06:16:56.407Z,4112.00
2022-08-22T06:17:56.544Z,4076.00
2022-08-22T06:18:56.662Z,4016.00
2022-08-22T06:19:56.755Z,3980.00
2022-08-22T06:20:56.867Z,3952.00
2022-08-22T06:21:57.002Z,3932.00
2022-08-22T06:22:57.103Z,3940.00
2022-08-22T06:23:57.252Z,3904.00
2022-08-22T06:24:57.344Z,3872.00
2022-08-22T06:25:57.474Z,3864.00
2022-08-22T06:26:57.584Z,3868.00
2022-08-22T06:27:57.911Z,3888.00
2022-08-22T06:28:57.844Z,3916.00
2022-08-22T06:29:57.960Z,3944.00
2022-08-22T06:30:58.083Z,3972.00
2022-08-22T06:31:58.192Z,3992.00
2022-08-22T06:33:01.003Z,4028.00
2022-08-22T06:33:58.457Z,4088.00
2022-08-22T06:34:58.593Z,4164.00
2022-08-22T06:35:58.708Z,4244.00
2022-08-22T06:36:58.812Z,4328.00
2022-08-22T06:37:59.252Z,4400.00
2022-08-22T06:38:59.067Z,4468.00
2022-08-22T06:39:59.240Z,4556.00
2022-08-22T06:40:59.321Z,4624.00
2022-08-22T06:41:59.467Z,4680.00
2022-08-22T06:42:59.583Z,4716.00
2022-08-22T06:43:59.705Z,4724.00
2022-08-22T06:44:59.838Z,4688.00
2022-08-22T06:45:59.942Z,4632.00
2022-08-22T06:47:00.063Z,4576.00
2022-08-22T06:48:00.976Z,4540.00
2022-08-22T06:49:00.379Z,4548.00
2022-08-22T06:50:00.494Z,4572.00
2022-08-22T06:51:00.575Z,4608.00
2022-08-22T06:52:00.649Z,4656.00
2022-08-22T06:53:00.816Z,4720.00
2022-08-22T06:54:00.928Z,4776.00
2022-08-22T06:55:01.051Z,4848.00
2022-08-22T06:56:01.913Z,4948.00
2022-08-22T06:57:01.274Z,5112.00
2022-08-22T06:58:01.376Z,5344.00
2022-08-22T06:59:01.464Z,5596.00
2022-08-22T07:00:01.625Z,5808.00
2022-08-22T07:01:11.896Z,5956.00
2022-08-22T07:02:02.910Z,6080.00
2022-08-22T07:03:01.974Z,6188.00
2022-08-22T07:04:02.104Z,6288.00
2022-08-22T07:05:02.224Z,6348.00
2022-08-22T07:06:02.343Z,6432.00
2022-08-22T07:07:02.423Z,6548.00
2022-08-22T07:08:02.577Z,6676.00
2022-08-22T07:09:06.741Z,6840.00
2022-08-22T07:10:02.812Z,7016.00
2022-08-22T07:11:02.939Z,7184.00
2022-08-22T07:12:03.042Z,7316.00
2022-08-22T07:13:03.154Z,7384.00
2022-08-22T07:14:03.253Z,7412.00
2022-08-22T07:15:03.443Z,7412.00
2022-08-22T07:16:03.554Z,7440.00
2022-08-22T07:17:04.349Z,7464.00
2022-08-22T07:18:03.772Z,7500.00
2022-08-22T07:19:03.892Z,7532.00
2022-08-22T07:20:03.998Z,7560.00
2022-08-22T07:21:04.139Z,7592.00
2022-08-22T07:22:04.236Z,7672.00
2022-08-22T07:23:04.376Z,7796.00
2022-08-22T07:24:04.506Z,7948.00
2022-08-22T07:25:04.617Z,8076.00
2022-08-22T07:26:04.726Z,8200.00
2022-08-22T07:27:04.872Z,8240.00
2022-08-22T07:28:05.520Z,8196.00
2022-08-22T07:29:07.853Z,8020.00
2022-08-22T07:30:06.205Z,7764.00
2022-08-22T07:31:05.317Z,7500.00
2022-08-22T07:32:05.413Z,7248.00
2022-08-22T07:33:26.253Z,7040.00
2022-08-22T07:34:06.687Z,6872.00
2022-08-22T07:35:05.846Z,6728.00
2022-08-22T07:36:05.965Z,6588.00
2022-08-22T07:37:06.074Z,6452.00
2022-08-22T07:38:08.173Z,6332.00
2022-08-22T07:39:06.295Z,6220.00
2022-08-22T07:40:06.466Z,6104.00
2022-08-22T07:41:06.546Z,5988.00
2022-08-22T07:42:06.696Z,5904.00
2022-08-22T07:43:06.819Z,5860.00
2022-08-22T07:44:06.914Z,5864.00
2022-08-22T07:45:07.037Z,5888.00
2022-08-22T07:46:07.125Z,5928.00
2022-08-22T07:47:07.252Z,5996.00
2022-08-22T07:48:07.363Z,6056.00
2022-08-22T07:49:09.515Z,6116.00
2022-08-22T07:50:07.628Z,6176.00
2022-08-22T07:51:07.716Z,6236.00
2022-08-22T07:52:07.863Z,6304.00
2022-08-22T07:53:08.034Z,6368.00
2022-08-22T07:54:08.127Z,6420.00
2022-08-22T07:55:08.233Z,6464.00
2022-08-22T07:56:08.326Z,6532.00
2022-08-22T07:57:08.476Z,6616.00
2022-08-22T07:58:08.625Z,6716.00
2022-08-22T07:59:12.848Z,6812.00
2022-08-22T08:00:08.852Z,6912.00
2022-08-22T08:01:09.036Z,7000.00
2022-08-22T08:02:09.146Z,7092.00
2022-08-22T08:03:09.257Z,7168.00
2022-08-22T08:04:09.370Z,7248.00
2022-08-22T08:05:09.488Z,7340.00
2022-08-22T08:06:09.578Z,7444.00
2022-08-22T08:07:09.717Z,7592.00
2022-08-22T08:08:09.879Z,7764.00
2022-08-22T08:09:11.018Z,8004.00
2022-08-22T08:10:13.078Z,8256.00
2022-08-22T08:11:10.225Z,8516.00
2022-08-22T08:12:10.398Z,8760.00
2022-08-22T08:13:10.487Z,8980.00
2022-08-22T08:14:13.762Z,9180.00
2022-08-22T08:15:10.725Z,9356.00
2022-08-22T08:16:10.829Z,9564.00
2022-08-22T08:17:10.986Z,9756.00
2022-08-22T08:18:11.098Z,9948.00
2022-08-22T08:19:11.245Z,10136.00
2022-08-22T08:20:11.379Z,10324.00
2022-08-22T08:21:11.471Z,10508.00
2022-08-22T08:22:11.618Z,10680.00
2022-08-22T08:23:11.718Z,10836.00
2022-08-22T08:24:11.868Z,10964.00
2022-08-22T08:25:12.016Z,11052.00
2022-08-22T08:26:12.107Z,11132.00
2022-08-22T08:27:12.266Z,11184.00
2022-08-22T08:28:12.320Z,11256.00
2022-08-22T08:29:12.432Z,11300.00
2022-08-22T08:30:15.375Z,11384.00
2022-08-22T08:31:12.667Z,11456.00
2022-08-22T08:32:12.789Z,11520.00
2022-08-22T08:33:25.315Z,11608.00
2022-08-22T08:34:13.999Z,11724.00
2022-08-22T08:35:13.147Z,11844.00
2022-08-22T08:36:13.288Z,11984.00
2022-08-22T08:37:13.399Z,12128.00
2022-08-22T08:38:13.558Z,12256.00
2022-08-22T08:39:13.689Z,12368.00
2022-08-22T08:40:13.862Z,12504.00
2022-08-22T08:41:13.928Z,12676.00
2022-08-22T08:42:14.040Z,12860.00
2022-08-22T08:43:14.149Z,13044.00
2022-08-22T08:44:14.260Z,12996.00
2022-08-22T08:45:14.436Z,13052.00
2022-08-22T08:46:14.523Z,13488.00
2022-08-22T08:47:14.659Z,13340.00
2022-08-22T08:48:14.751Z,13032.00
2022-08-22T08:49:14.889Z,13376.00
2022-08-22T08:50:15.052Z,13772.00
2022-08-22T08:51:15.158Z,13640.00
2022-08-22T08:52:15.277Z,14256.00
2022-08-22T08:53:15.389Z,13720.00
2022-08-22T08:54:15.564Z,14008.00
2022-08-22T08:55:22.453Z,13628.00
2022-08-22T08:56:19.730Z,13740.00
2022-08-22T08:57:15.941Z,13808.00
2022-08-22T08:58:17.796Z,13940.00
2022-08-22T08:59:16.159Z,14280.00
2022-08-22T09:00:17.010Z,14252.00
2022-08-22T09:01:16.411Z,14404.00
2022-08-22T09:02:20.700Z,14612.00
2022-08-22T09:03:25.050Z,15056.00
2022-08-22T09:04:17.718Z,15552.00
2022-08-22T09:05:16.865Z,15968.00
2022-08-22T09:06:16.984Z,16704.00
2022-08-22T09:07:17.131Z,16672.00
2022-08-22T09:08:17.242Z,16320.00
2022-08-22T09:09:17.358Z,16000.00
2022-08-22T09:10:18.878Z,16032.00
2022-08-22T09:11:17.584Z,16256.00
2022-08-22T09:12:19.442Z,16128.00
2022-08-22T09:13:17.859Z,16032.00
2022-08-22T09:14:17.952Z,16128.00
2022-08-22T09:15:18.079Z,16448.00
2022-08-22T09:16:18.723Z,16256.00
2022-08-22T09:17:18.346Z,14976.00
2022-08-22T09:18:18.523Z,14528.00
2022-08-22T09:19:18.560Z,14216.00
2022-08-22T09:20:19.625Z,13728.00
2022-08-22T09:21:30.785Z,13388.00
2022-08-22T09:22:19.953Z,13340.00
2022-08-22T09:23:19.104Z,13344.00
2022-08-22T09:24:19.199Z,13420.00
2022-08-22T09:25:19.351Z,13452.00
2022-08-22T09:26:19.477Z,13432.00
2022-08-22T09:27:19.625Z,13412.00
2022-08-22T09:28:19.751Z,13288.00
2022-08-22T09:29:19.880Z,13120.00
2022-08-22T09:30:27.748Z,12972.00
2022-08-22T09:31:32.770Z,12872.00
2022-08-22T09:32:21.254Z,12856.00
2022-08-22T09:33:20.412Z,12944.00
2022-08-22T09:34:24.034Z,12908.00
2022-08-22T09:35:22.375Z,12964.00
2022-08-22T09:36:20.795Z,13280.00
2022-08-22T09:37:20.841Z,15168.00
2022-08-22T09:38:21.013Z,13136.00
2022-08-22T09:39:21.134Z,15520.00
2022-08-22T09:40:25.184Z,12532.00
2022-08-22T09:41:21.361Z,12032.00
2022-08-22T09:42:21.441Z,13036.00
2022-08-22T09:43:22.862Z,12848.00
2022-08-22T09:44:22.412Z,13212.00
2022-08-22T09:45:21.794Z,15392.00
2022-08-22T09:46:21.902Z,14272.00
2022-08-22T09:47:24.706Z,15456.00
2022-08-22T09:48:22.154Z,11868.00
2022-08-22T09:49:22.315Z,10408.00
2022-08-22T09:50:22.446Z,14432.00
2022-08-22T09:51:31.935Z,13304.00
2022-08-22T09:52:33.810Z,15296.00
2022-08-22T09:53:23.803Z,14272.00
2022-08-22T09:54:22.918Z,19072.00
2022-08-22T09:55:35.405Z,22976.00
2022-08-22T09:56:26.131Z,20544.00
2022-08-22T09:57:23.327Z,22048.00
2022-08-22T09:58:23.426Z,21088.00
2022-08-22T09:59:23.587Z,19424.00
2022-08-22T10:00:23.708Z,20320.00
2022-08-22T10:01:23.882Z,22432.00
2022-08-22T10:02:23.907Z,24768.00
2022-08-22T10:03:24.067Z,19360.00
2022-08-22T10:04:24.188Z,16064.00
2022-08-22T10:05:35.214Z,17888.00
2022-08-22T10:06:25.387Z,17120.00
2022-08-22T10:07:24.527Z,23648.00
2022-08-22T10:08:26.199Z,23584.00
2022-08-22T10:09:32.013Z,26912.00
2022-08-22T10:10:26.110Z,27584.00
2022-08-22T10:11:24.996Z,23712.00
2022-08-22T10:12:25.094Z,23968.00
2022-08-22T10:13:25.255Z,24576.00
2022-08-22T10:14:25.376Z,25472.00
2022-08-22T10:15:25.509Z,28000.00
2022-08-22T10:16:25.595Z,30048.00
2022-08-22T10:17:27.728Z,26464.00
2022-08-22T10:18:26.123Z,24608.00
2022-08-22T10:19:26.194Z,24960.00
2022-08-22T10:20:27.709Z,26144.00
2022-08-22T10:21:26.289Z,29824.00
2022-08-22T10:22:29.977Z,31456.00
2022-08-22T10:23:26.510Z,27680.00
2022-08-22T10:24:26.608Z,27040.00
2022-08-22T10:25:28.546Z,30944.00
2022-08-22T10:26:26.871Z,33024.00
2022-08-22T10:27:27.018Z,32896.00
2022-08-22T10:28:28.582Z,35168.00
2022-08-22T10:29:27.256Z,37056.00
2022-08-22T10:30:27.641Z,34720.00
2022-08-22T10:31:27.526Z,32672.00
2022-08-22T10:32:27.617Z,36224.00
2022-08-22T10:33:29.161Z,36544.00
2022-08-22T10:34:27.912Z,37696.00
2022-08-22T10:35:28.042Z,40352.00
2022-08-22T10:36:29.157Z,38944.00
2022-08-22T10:37:28.297Z,43296.00
2022-08-22T10:38:28.419Z,43808.00
2022-08-22T10:39:28.543Z,46496.00
2022-08-22T10:40:28.707Z,52096.00
2022-08-22T10:41:28.823Z,45824.00
2022-08-22T10:42:28.911Z,43552.00
2022-08-22T10:43:30.039Z,44736.00
2022-08-22T10:44:29.172Z,44096.00
2022-08-22T10:45:36.814Z,24576.00
2022-08-22T10:46:30.462Z,35808.00
2022-08-22T10:47:29.559Z,30112.00
2022-08-22T10:48:29.640Z,17408.00
2022-08-22T10:49:29.792Z,24384.00
2022-08-22T10:50:31.198Z,30400.00
2022-08-22T10:51:30.098Z,30912.00
2022-08-22T10:52:30.200Z,62528.00
2022-08-22T10:53:30.316Z,62784.00
2022-08-22T10:54:30.411Z,61376.00
2022-08-22T10:55:30.579Z,62912.00
2022-08-22T10:56:30.706Z,61280.00
2022-08-22T10:57:30.801Z,55072.00
2022-08-22T10:58:30.909Z,51552.00
2022-08-22T10:59:31.051Z,48416.00
2022-08-22T11:00:31.191Z,48960.00
2022-08-22T11:01:38.136Z,51360.00
2022-08-22T11:02:32.482Z,50208.00
2022-08-22T11:03:31.540Z,50368.00
2022-08-22T11:04:31.653Z,38592.00
2022-08-22T11:05:31.864Z,58432.00
2022-08-22T11:06:31.924Z,53376.00
2022-08-22T11:07:32.044Z,51296.00
2022-08-22T11:08:33.099Z,59168.00
2022-08-22T11:09:37.015Z,56096.00
2022-08-22T11:10:32.413Z,43456.00
2022-08-22T11:11:33.045Z,41792.00
2022-08-22T11:12:34.977Z,27392.00
2022-08-22T11:13:32.783Z,24288.00
2022-08-22T11:14:32.905Z,30880.00
2022-08-22T11:15:35.131Z,46464.00
2022-08-22T11:16:36.740Z,56704.00
2022-08-22T11:17:38.129Z,56192.00
2022-08-22T11:18:34.383Z,57504.00
2022-08-22T11:19:33.483Z,56832.00
2022-08-22T11:20:33.608Z,54688.00
2022-08-22T11:21:33.726Z,54528.00
2022-08-22T11:22:33.915Z,54624.00
2022-08-22T11:23:34.030Z,55296.00
2022-08-22T11:24:36.785Z,59200.00
2022-08-22T11:25:38.606Z,55072.00
2022-08-22T11:26:41.377Z,59936.00
2022-08-22T11:27:39.926Z,59936.00
2022-08-22T11:28:35.614Z,55360.00
2022-08-22T11:29:34.735Z,54112.00
2022-08-22T11:30:36.401Z,44832.00
2022-08-22T11:31:36.548Z,53152.00
2022-08-22T11:32:35.204Z,54144.00
2022-08-22T11:33:46.788Z,53952.00
2022-08-22T11:34:36.423Z,58528.00
2022-08-22T11:35:36.289Z,48576.00
2022-08-22T11:36:35.656Z,57024.00
2022-08-22T11:37:43.533Z,51104.00
2022-08-22T11:38:36.900Z,48192.00
2022-08-22T11:39:36.033Z,34080.00
2022-08-22T11:40:36.148Z,21600.00
2022-08-22T11:41:36.279Z,20160.00
2022-08-22T11:42:36.434Z,19168.00
2022-08-22T11:43:37.546Z,21024.00
2022-08-22T11:44:37.590Z,22176.00
2022-08-22T11:45:37.832Z,20736.00
2022-08-22T11:46:36.946Z,21600.00
2022-08-22T11:47:37.106Z,20960.00
2022-08-22T11:48:37.220Z,22656.00
2022-08-22T11:49:37.338Z,22528.00
2022-08-22T11:50:37.497Z,28864.00
2022-08-22T11:51:37.586Z,32096.00
2022-08-22T11:52:37.715Z,47456.00
2022-08-22T11:53:37.798Z,50304.00
2022-08-22T11:54:37.919Z,46144.00
2022-08-22T11:55:38.043Z,34272.00
2022-08-22T11:56:40.170Z,37024.00
2022-08-22T11:57:38.298Z,38816.00
2022-08-22T11:58:38.425Z,60192.00
2022-08-22T11:59:40.148Z,68224.00
2022-08-22T12:00:38.667Z,70336.00
2022-08-22T12:01:39.140Z,69216.00
2022-08-22T12:02:38.967Z,67072.00
2022-08-22T12:03:39.059Z,59360.00
2022-08-22T12:04:39.166Z,47424.00
2022-08-22T12:05:39.288Z,49152.00
2022-08-22T12:06:39.410Z,50464.00
2022-08-22T12:07:39.528Z,52896.00
2022-08-22T12:08:39.701Z,47072.00
2022-08-22T12:09:39.789Z,49856.00
2022-08-22T12:10:39.899Z,50208.00
2022-08-22T12:11:40.039Z,49408.00
2022-08-22T12:12:40.188Z,48800.00
2022-08-22T12:13:40.289Z,41312.00
2022-08-22T12:14:40.459Z,40512.00
2022-08-22T12:15:40.535Z,33792.00
2022-08-22T12:16:40.697Z,31296.00
2022-08-22T12:17:55.221Z,26464.00